sensor_id;sensor_type;location;lat;lon;timestamp;P1;durP1;ratioP1;P2;durP2;ratioP2
37409;SDS011;23275;48.914;12.566;2024-02-26T00:02:16;9.70;;;4.63;;
37409;SDS011;23275;48.914;12.566;2024-02-26T00:04:42;10.60;;;4.90;;
37409;SDS011;23275;48.914;12.566;2024-02-26T00:07:07;10.30;;;5.10;;
37409;SDS011;23275;48.914;12.566;2024-02-26T00:09:33;11.60;;;5.00;;
37409;SDS011;23275;48.914;12.566;2024-02-26T00:12:04;9.45;;;5.00;;
37409;SDS011;23275;48.914;12.566;2024-02-26T00:14:30;10.00;;;4.88;;
37409;SDS011;23275;48.914;12.566;2024-02-26T00:16:56;9.30;;;4.60;;
37409;SDS011;23275;48.914;12.566;2024-02-26T00:19:21;10.73;;;4.57;;
37409;SDS011;23275;48.914;12.566;2024-02-26T00:21:47;8.30;;;4.40;;
37409;SDS011;23275;48.914;12.566;2024-02-26T00:24:13;10.30;;;4.18;;
37409;SDS011;23275;48.914;12.566;2024-02-26T00:26:38;8.52;;;3.97;;
37409;SDS011;23275;48.914;12.566;2024-02-26T00:29:04;7.70;;;4.15;;
37409;SDS011;23275;48.914;12.566;2024-02-26T00:31:30;10.18;;;4.30;;
37409;SDS011;23275;48.914;12.566;2024-02-26T00:33:55;9.13;;;3.50;;
37409;SDS011;23275;48.914;12.566;2024-02-26T00:36:21;8.82;;;4.22;;
37409;SDS011;23275;48.914;12.566;2024-02-26T00:38:46;7.03;;;3.50;;
37409;SDS011;23275;48.914;12.566;2024-02-26T00:41:16;7.85;;;3.60;;
37409;SDS011;23275;48.914;12.566;2024-02-26T00:43:42;8.32;;;4.13;;
37409;SDS011;23275;48.914;12.566;2024-02-26T00:46:08;8.18;;;3.42;;
37409;SDS011;23275;48.914;12.566;2024-02-26T00:48:33;8.77;;;3.63;;
37409;SDS011;23275;48.914;12.566;2024-02-26T00:50:59;8.57;;;4.03;;
37409;SDS011;23275;48.914;12.566;2024-02-26T00:53:24;7.55;;;3.25;;
37409;SDS011;23275;48.914;12.566;2024-02-26T00:55:50;7.30;;;3.40;;
37409;SDS011;23275;48.914;12.566;2024-02-26T00:58:16;7.93;;;3.45;;
37409;SDS011;23275;48.914;12.566;2024-02-26T01:00:41;10.27;;;3.90;;
37409;SDS011;23275;48.914;12.566;2024-02-26T01:03:07;8.93;;;3.75;;
37409;SDS011;23275;48.914;12.566;2024-02-26T01:05:33;9.48;;;4.13;;
37409;SDS011;23275;48.914;12.566;2024-02-26T01:07:58;8.50;;;4.07;;
37409;SDS011;23275;48.914;12.566;2024-02-26T01:10:24;6.97;;;3.63;;
37409;SDS011;23275;48.914;12.566;2024-02-26T01:12:49;6.55;;;3.45;;
37409;SDS011;23275;48.914;12.566;2024-02-26T01:15:15;6.68;;;3.47;;
37409;SDS011;23275;48.914;12.566;2024-02-26T01:17:41;7.18;;;3.40;;
37409;SDS011;23275;48.914;12.566;2024-02-26T01:20:06;9.93;;;3.75;;
37409;SDS011;23275;48.914;12.566;2024-02-26T01:22:33;8.27;;;3.53;;
37409;SDS011;23275;48.914;12.566;2024-02-26T01:24:59;7.03;;;3.45;;
37409;SDS011;23275;48.914;12.566;2024-02-26T01:27:25;8.80;;;4.07;;
37409;SDS011;23275;48.914;12.566;2024-02-26T01:29:52;7.70;;;3.28;;
37409;SDS011;23275;48.914;12.566;2024-02-26T01:32:17;8.20;;;3.42;;
37409;SDS011;23275;48.914;12.566;2024-02-26T01:34:44;5.13;;;3.10;;
37409;SDS011;23275;48.914;12.566;2024-02-26T01:37:10;6.05;;;2.88;;
37409;SDS011;23275;48.914;12.566;2024-02-26T01:39:36;7.90;;;3.63;;
37409;SDS011;23275;48.914;12.566;2024-02-26T01:42:01;6.68;;;3.42;;
37409;SDS011;23275;48.914;12.566;2024-02-26T01:44:27;7.78;;;3.88;;
37409;SDS011;23275;48.914;12.566;2024-02-26T01:46:53;9.77;;;3.33;;
37409;SDS011;23275;48.914;12.566;2024-02-26T01:49:19;8.82;;;3.63;;
37409;SDS011;23275;48.914;12.566;2024-02-26T01:51:45;6.03;;;3.05;;
37409;SDS011;23275;48.914;12.566;2024-02-26T01:54:11;8.20;;;3.95;;
37409;SDS011;23275;48.914;12.566;2024-02-26T01:56:37;5.63;;;3.13;;
37409;SDS011;23275;48.914;12.566;2024-02-26T01:59:04;6.10;;;3.17;;
37409;SDS011;23275;48.914;12.566;2024-02-26T02:01:31;6.50;;;3.45;;
37409;SDS011;23275;48.914;12.566;2024-02-26T02:03:58;7.53;;;4.13;;
37409;SDS011;23275;48.914;12.566;2024-02-26T02:06:24;9.13;;;3.58;;
37409;SDS011;23275;48.914;12.566;2024-02-26T02:08:50;6.20;;;2.70;;
37409;SDS011;23275;48.914;12.566;2024-02-26T02:11:16;5.95;;;2.80;;
37409;SDS011;23275;48.914;12.566;2024-02-26T02:13:42;6.13;;;3.33;;
37409;SDS011;23275;48.914;12.566;2024-02-26T02:16:07;5.57;;;3.08;;
37409;SDS011;23275;48.914;12.566;2024-02-26T02:18:33;7.97;;;2.92;;
37409;SDS011;23275;48.914;12.566;2024-02-26T02:21:02;7.38;;;3.30;;
37409;SDS011;23275;48.914;12.566;2024-02-26T02:23:28;6.72;;;3.03;;
37409;SDS011;23275;48.914;12.566;2024-02-26T02:25:54;6.78;;;3.35;;
37409;SDS011;23275;48.914;12.566;2024-02-26T02:28:22;5.95;;;3.22;;
37409;SDS011;23275;48.914;12.566;2024-02-26T02:30:49;7.20;;;3.33;;
37409;SDS011;23275;48.914;12.566;2024-02-26T02:33:15;5.18;;;2.90;;
37409;SDS011;23275;48.914;12.566;2024-02-26T02:35:41;5.95;;;3.10;;
37409;SDS011;23275;48.914;12.566;2024-02-26T02:38:07;6.03;;;2.90;;
37409;SDS011;23275;48.914;12.566;2024-02-26T02:40:32;7.43;;;3.40;;
37409;SDS011;23275;48.914;12.566;2024-02-26T02:42:58;7.07;;;3.33;;
37409;SDS011;23275;48.914;12.566;2024-02-26T02:45:25;7.10;;;3.65;;
37409;SDS011;23275;48.914;12.566;2024-02-26T02:47:50;7.28;;;3.10;;
37409;SDS011;23275;48.914;12.566;2024-02-26T02:50:16;5.60;;;2.88;;
37409;SDS011;23275;48.914;12.566;2024-02-26T02:52:41;8.35;;;3.28;;
37409;SDS011;23275;48.914;12.566;2024-02-26T02:55:07;6.68;;;3.20;;
37409;SDS011;23275;48.914;12.566;2024-02-26T02:57:33;6.25;;;3.30;;
37409;SDS011;23275;48.914;12.566;2024-02-26T02:59:59;6.05;;;3.13;;
37409;SDS011;23275;48.914;12.566;2024-02-26T03:02:24;5.93;;;3.25;;
37409;SDS011;23275;48.914;12.566;2024-02-26T03:04:50;7.15;;;3.70;;
37409;SDS011;23275;48.914;12.566;2024-02-26T03:07:16;5.75;;;2.67;;
37409;SDS011;23275;48.914;12.566;2024-02-26T03:09:41;7.25;;;3.20;;
37409;SDS011;23275;48.914;12.566;2024-02-26T03:12:07;6.80;;;3.20;;
37409;SDS011;23275;48.914;12.566;2024-02-26T03:14:32;7.05;;;3.35;;
37409;SDS011;23275;48.914;12.566;2024-02-26T03:16:58;6.88;;;3.00;;
37409;SDS011;23275;48.914;12.566;2024-02-26T03:19:24;6.63;;;2.88;;
37409;SDS011;23275;48.914;12.566;2024-02-26T03:21:50;6.35;;;3.05;;
37409;SDS011;23275;48.914;12.566;2024-02-26T03:24:15;6.40;;;2.55;;
37409;SDS011;23275;48.914;12.566;2024-02-26T03:26:41;4.18;;;2.15;;
37409;SDS011;23275;48.914;12.566;2024-02-26T03:29:06;3.95;;;2.30;;
37409;SDS011;23275;48.914;12.566;2024-02-26T03:31:32;6.05;;;2.47;;
37409;SDS011;23275;48.914;12.566;2024-02-26T03:33:57;5.60;;;2.60;;
37409;SDS011;23275;48.914;12.566;2024-02-26T03:36:23;5.03;;;2.55;;
37409;SDS011;23275;48.914;12.566;2024-02-26T03:38:48;3.83;;;1.95;;
37409;SDS011;23275;48.914;12.566;2024-02-26T03:41:14;6.05;;;2.75;;
37409;SDS011;23275;48.914;12.566;2024-02-26T03:43:40;4.90;;;2.10;;
37409;SDS011;23275;48.914;12.566;2024-02-26T03:46:09;5.50;;;2.53;;
37409;SDS011;23275;48.914;12.566;2024-02-26T03:48:36;7.35;;;2.63;;
37409;SDS011;23275;48.914;12.566;2024-02-26T03:51:02;4.68;;;2.25;;
37409;SDS011;23275;48.914;12.566;2024-02-26T03:53:27;8.02;;;2.35;;
37409;SDS011;23275;48.914;12.566;2024-02-26T03:55:53;5.03;;;2.70;;
37409;SDS011;23275;48.914;12.566;2024-02-26T03:58:20;6.68;;;2.30;;
37409;SDS011;23275;48.914;12.566;2024-02-26T04:00:46;5.05;;;2.78;;
37409;SDS011;23275;48.914;12.566;2024-02-26T04:03:12;7.35;;;2.78;;
37409;SDS011;23275;48.914;12.566;2024-02-26T04:05:38;6.35;;;2.55;;
37409;SDS011;23275;48.914;12.566;2024-02-26T04:08:04;7.80;;;2.72;;
37409;SDS011;23275;48.914;12.566;2024-02-26T04:10:33;5.10;;;2.25;;
37409;SDS011;23275;48.914;12.566;2024-02-26T04:13:03;4.97;;;2.40;;
37409;SDS011;23275;48.914;12.566;2024-02-26T04:15:30;7.53;;;2.38;;
37409;SDS011;23275;48.914;12.566;2024-02-26T04:17:56;6.28;;;2.45;;
37409;SDS011;23275;48.914;12.566;2024-02-26T04:20:22;4.90;;;2.42;;
37409;SDS011;23275;48.914;12.566;2024-02-26T04:22:48;5.20;;;2.08;;
37409;SDS011;23275;48.914;12.566;2024-02-26T04:25:13;6.30;;;2.60;;
37409;SDS011;23275;48.914;12.566;2024-02-26T04:27:39;4.75;;;2.17;;
37409;SDS011;23275;48.914;12.566;2024-02-26T04:30:05;4.45;;;2.10;;
37409;SDS011;23275;48.914;12.566;2024-02-26T04:32:31;7.45;;;2.88;;
37409;SDS011;23275;48.914;12.566;2024-02-26T04:34:57;4.43;;;1.73;;
37409;SDS011;23275;48.914;12.566;2024-02-26T04:37:23;4.88;;;2.13;;
37409;SDS011;23275;48.914;12.566;2024-02-26T04:39:49;7.53;;;2.45;;
37409;SDS011;23275;48.914;12.566;2024-02-26T04:42:14;5.10;;;1.88;;
37409;SDS011;23275;48.914;12.566;2024-02-26T04:44:40;4.35;;;2.10;;
37409;SDS011;23275;48.914;12.566;2024-02-26T04:47:05;3.97;;;1.85;;
37409;SDS011;23275;48.914;12.566;2024-02-26T04:49:32;4.57;;;1.98;;
37409;SDS011;23275;48.914;12.566;2024-02-26T04:51:59;5.63;;;2.13;;
37409;SDS011;23275;48.914;12.566;2024-02-26T04:54:25;5.05;;;2.13;;
37409;SDS011;23275;48.914;12.566;2024-02-26T04:56:50;4.13;;;2.20;;
37409;SDS011;23275;48.914;12.566;2024-02-26T04:59:16;5.97;;;2.15;;
37409;SDS011;23275;48.914;12.566;2024-02-26T05:01:42;5.20;;;2.22;;
37409;SDS011;23275;48.914;12.566;2024-02-26T05:04:07;5.15;;;2.30;;
37409;SDS011;23275;48.914;12.566;2024-02-26T05:06:33;5.85;;;2.25;;
37409;SDS011;23275;48.914;12.566;2024-02-26T05:08:58;4.35;;;2.10;;
37409;SDS011;23275;48.914;12.566;2024-02-26T05:11:24;4.95;;;2.17;;
37409;SDS011;23275;48.914;12.566;2024-02-26T05:13:49;5.30;;;2.05;;
37409;SDS011;23275;48.914;12.566;2024-02-26T05:16:15;5.05;;;2.00;;
37409;SDS011;23275;48.914;12.566;2024-02-26T05:18:40;7.78;;;2.28;;
37409;SDS011;23275;48.914;12.566;2024-02-26T05:21:06;4.55;;;2.00;;
37409;SDS011;23275;48.914;12.566;2024-02-26T05:23:31;7.13;;;2.35;;
37409;SDS011;23275;48.914;12.566;2024-02-26T05:25:57;4.05;;;2.22;;
37409;SDS011;23275;48.914;12.566;2024-02-26T05:28:22;6.38;;;2.13;;
37409;SDS011;23275;48.914;12.566;2024-02-26T05:30:48;4.57;;;2.20;;
37409;SDS011;23275;48.914;12.566;2024-02-26T05:33:14;4.95;;;2.38;;
37409;SDS011;23275;48.914;12.566;2024-02-26T05:35:39;7.35;;;2.30;;
37409;SDS011;23275;48.914;12.566;2024-02-26T05:38:05;4.10;;;1.98;;
37409;SDS011;23275;48.914;12.566;2024-02-26T05:40:31;5.65;;;2.40;;
37409;SDS011;23275;48.914;12.566;2024-02-26T05:42:56;3.90;;;1.83;;
37409;SDS011;23275;48.914;12.566;2024-02-26T05:45:22;4.82;;;2.22;;
37409;SDS011;23275;48.914;12.566;2024-02-26T05:47:47;4.72;;;2.10;;
37409;SDS011;23275;48.914;12.566;2024-02-26T05:50:14;4.20;;;2.20;;
37409;SDS011;23275;48.914;12.566;2024-02-26T05:52:40;4.10;;;1.80;;
37409;SDS011;23275;48.914;12.566;2024-02-26T05:55:06;6.22;;;2.00;;
37409;SDS011;23275;48.914;12.566;2024-02-26T05:57:35;3.92;;;1.75;;
37409;SDS011;23275;48.914;12.566;2024-02-26T06:00:01;3.65;;;1.70;;
37409;SDS011;23275;48.914;12.566;2024-02-26T06:02:32;3.42;;;1.65;;
37409;SDS011;23275;48.914;12.566;2024-02-26T06:04:58;3.95;;;1.92;;
37409;SDS011;23275;48.914;12.566;2024-02-26T06:07:24;5.70;;;1.90;;
37409;SDS011;23275;48.914;12.566;2024-02-26T06:09:50;5.55;;;1.90;;
37409;SDS011;23275;48.914;12.566;2024-02-26T06:12:15;3.47;;;1.50;;
37409;SDS011;23275;48.914;12.566;2024-02-26T06:14:46;5.43;;;1.90;;
37409;SDS011;23275;48.914;12.566;2024-02-26T06:17:12;3.85;;;1.75;;
37409;SDS011;23275;48.914;12.566;2024-02-26T06:19:37;5.03;;;2.42;;
37409;SDS011;23275;48.914;12.566;2024-02-26T06:22:03;4.50;;;1.90;;
37409;SDS011;23275;48.914;12.566;2024-02-26T06:24:29;3.47;;;1.48;;
37409;SDS011;23275;48.914;12.566;2024-02-26T06:26:54;3.97;;;1.70;;
37409;SDS011;23275;48.914;12.566;2024-02-26T06:29:20;4.05;;;1.70;;
37409;SDS011;23275;48.914;12.566;2024-02-26T06:31:45;5.47;;;1.70;;
37409;SDS011;23275;48.914;12.566;2024-02-26T06:34:13;4.57;;;1.48;;
37409;SDS011;23275;48.914;12.566;2024-02-26T06:36:38;2.75;;;1.35;;
37409;SDS011;23275;48.914;12.566;2024-02-26T06:39:04;3.72;;;1.25;;
37409;SDS011;23275;48.914;12.566;2024-02-26T06:41:30;4.28;;;1.60;;
37409;SDS011;23275;48.914;12.566;2024-02-26T06:43:56;3.28;;;1.42;;
37409;SDS011;23275;48.914;12.566;2024-02-26T06:46:22;4.60;;;1.67;;
37409;SDS011;23275;48.914;12.566;2024-02-26T06:48:48;2.97;;;1.48;;
37409;SDS011;23275;48.914;12.566;2024-02-26T06:51:14;3.88;;;1.35;;
37409;SDS011;23275;48.914;12.566;2024-02-26T06:53:40;2.63;;;1.35;;
37409;SDS011;23275;48.914;12.566;2024-02-26T06:56:05;4.30;;;1.52;;
37409;SDS011;23275;48.914;12.566;2024-02-26T06:58:31;4.60;;;1.75;;
37409;SDS011;23275;48.914;12.566;2024-02-26T07:00:56;5.68;;;1.63;;
37409;SDS011;23275;48.914;12.566;2024-02-26T07:03:22;6.25;;;1.67;;
37409;SDS011;23275;48.914;12.566;2024-02-26T07:05:49;3.15;;;1.50;;
37409;SDS011;23275;48.914;12.566;2024-02-26T07:08:15;3.40;;;1.52;;
37409;SDS011;23275;48.914;12.566;2024-02-26T07:10:41;7.05;;;1.58;;
37409;SDS011;23275;48.914;12.566;2024-02-26T07:13:06;3.20;;;1.33;;
37409;SDS011;23275;48.914;12.566;2024-02-26T07:15:32;6.57;;;1.63;;
37409;SDS011;23275;48.914;12.566;2024-02-26T07:17:58;3.95;;;1.70;;
37409;SDS011;23275;48.914;12.566;2024-02-26T07:20:27;3.97;;;1.73;;
37409;SDS011;23275;48.914;12.566;2024-02-26T07:22:56;4.53;;;1.60;;
37409;SDS011;23275;48.914;12.566;2024-02-26T07:25:22;4.30;;;1.50;;
37409;SDS011;23275;48.914;12.566;2024-02-26T07:27:49;3.63;;;1.40;;
37409;SDS011;23275;48.914;12.566;2024-02-26T07:30:15;5.97;;;1.50;;
37409;SDS011;23275;48.914;12.566;2024-02-26T07:32:41;3.42;;;1.30;;
37409;SDS011;23275;48.914;12.566;2024-02-26T07:35:07;3.55;;;1.80;;
37409;SDS011;23275;48.914;12.566;2024-02-26T07:37:33;3.47;;;1.70;;
37409;SDS011;23275;48.914;12.566;2024-02-26T07:39:59;3.85;;;1.75;;
37409;SDS011;23275;48.914;12.566;2024-02-26T07:42:25;3.97;;;1.80;;
37409;SDS011;23275;48.914;12.566;2024-02-26T07:44:51;3.28;;;1.55;;
37409;SDS011;23275;48.914;12.566;2024-02-26T07:47:17;4.10;;;1.88;;
37409;SDS011;23275;48.914;12.566;2024-02-26T07:49:43;3.92;;;1.70;;
37409;SDS011;23275;48.914;12.566;2024-02-26T07:52:08;4.60;;;2.20;;
37409;SDS011;23275;48.914;12.566;2024-02-26T07:54:34;3.95;;;1.75;;
37409;SDS011;23275;48.914;12.566;2024-02-26T07:57:00;5.47;;;3.03;;
37409;SDS011;23275;48.914;12.566;2024-02-26T07:59:26;4.43;;;2.35;;
37409;SDS011;23275;48.914;12.566;2024-02-26T08:01:51;4.43;;;2.20;;
37409;SDS011;23275;48.914;12.566;2024-02-26T08:04:17;3.90;;;1.55;;
37409;SDS011;23275;48.914;12.566;2024-02-26T08:06:43;5.57;;;2.03;;
37409;SDS011;23275;48.914;12.566;2024-02-26T08:09:09;4.53;;;2.10;;
37409;SDS011;23275;48.914;12.566;2024-02-26T08:11:34;5.38;;;2.25;;
37409;SDS011;23275;48.914;12.566;2024-02-26T08:14:00;4.88;;;2.13;;
37409;SDS011;23275;48.914;12.566;2024-02-26T08:16:26;4.28;;;2.22;;
37409;SDS011;23275;48.914;12.566;2024-02-26T08:18:52;3.72;;;2.00;;
37409;SDS011;23275;48.914;12.566;2024-02-26T08:21:18;5.05;;;2.00;;
37409;SDS011;23275;48.914;12.566;2024-02-26T08:23:43;5.32;;;1.73;;
37409;SDS011;23275;48.914;12.566;2024-02-26T08:26:09;3.85;;;1.70;;
37409;SDS011;23275;48.914;12.566;2024-02-26T08:28:39;3.72;;;1.90;;
37409;SDS011;23275;48.914;12.566;2024-02-26T08:31:04;4.05;;;1.60;;
37409;SDS011;23275;48.914;12.566;2024-02-26T08:33:30;4.32;;;1.80;;
37409;SDS011;23275;48.914;12.566;2024-02-26T08:35:56;3.50;;;1.02;;
37409;SDS011;23275;48.914;12.566;2024-02-26T08:38:22;3.88;;;1.27;;
37409;SDS011;23275;48.914;12.566;2024-02-26T08:40:48;2.78;;;1.35;;
37409;SDS011;23275;48.914;12.566;2024-02-26T08:43:13;2.05;;;0.88;;
37409;SDS011;23275;48.914;12.566;2024-02-26T08:45:39;3.05;;;1.40;;
37409;SDS011;23275;48.914;12.566;2024-02-26T08:48:05;4.30;;;1.42;;
37409;SDS011;23275;48.914;12.566;2024-02-26T08:50:31;2.63;;;1.15;;
37409;SDS011;23275;48.914;12.566;2024-02-26T08:52:56;4.18;;;1.33;;
37409;SDS011;23275;48.914;12.566;2024-02-26T08:55:22;4.78;;;1.27;;
37409;SDS011;23275;48.914;12.566;2024-02-26T08:57:47;3.80;;;1.13;;
37409;SDS011;23275;48.914;12.566;2024-02-26T09:00:13;2.70;;;1.40;;
37409;SDS011;23275;48.914;12.566;2024-02-26T09:02:40;3.20;;;1.17;;
37409;SDS011;23275;48.914;12.566;2024-02-26T09:05:08;3.15;;;1.30;;
37409;SDS011;23275;48.914;12.566;2024-02-26T09:07:35;3.47;;;1.08;;
37409;SDS011;23275;48.914;12.566;2024-02-26T09:10:01;4.10;;;1.48;;
37409;SDS011;23275;48.914;12.566;2024-02-26T09:12:26;3.05;;;1.25;;
37409;SDS011;23275;48.914;12.566;2024-02-26T09:14:52;3.38;;;1.42;;
37409;SDS011;23275;48.914;12.566;2024-02-26T09:17:18;5.28;;;1.70;;
37409;SDS011;23275;48.914;12.566;2024-02-26T09:19:43;6.03;;;1.38;;
37409;SDS011;23275;48.914;12.566;2024-02-26T09:22:09;3.53;;;1.65;;
37409;SDS011;23275;48.914;12.566;2024-02-26T09:24:34;2.85;;;1.30;;
37409;SDS011;23275;48.914;12.566;2024-02-26T09:27:01;4.85;;;1.27;;
37409;SDS011;23275;48.914;12.566;2024-02-26T09:29:26;3.65;;;1.20;;
37409;SDS011;23275;48.914;12.566;2024-02-26T09:31:52;4.78;;;2.30;;
37409;SDS011;23275;48.914;12.566;2024-02-26T09:34:18;3.60;;;1.33;;
37409;SDS011;23275;48.914;12.566;2024-02-26T09:36:43;4.05;;;1.33;;
37409;SDS011;23275;48.914;12.566;2024-02-26T09:39:09;3.53;;;1.38;;
37409;SDS011;23275;48.914;12.566;2024-02-26T09:41:36;4.07;;;1.27;;
37409;SDS011;23275;48.914;12.566;2024-02-26T09:44:04;4.35;;;1.70;;
37409;SDS011;23275;48.914;12.566;2024-02-26T09:46:30;5.07;;;1.40;;
37409;SDS011;23275;48.914;12.566;2024-02-26T09:48:56;5.40;;;1.58;;
37409;SDS011;23275;48.914;12.566;2024-02-26T09:51:22;3.92;;;1.58;;
37409;SDS011;23275;48.914;12.566;2024-02-26T09:53:51;2.92;;;1.10;;
37409;SDS011;23275;48.914;12.566;2024-02-26T09:56:17;3.53;;;1.50;;
37409;SDS011;23275;48.914;12.566;2024-02-26T09:58:43;3.63;;;1.60;;
37409;SDS011;23275;48.914;12.566;2024-02-26T10:01:15;3.33;;;1.45;;
37409;SDS011;23275;48.914;12.566;2024-02-26T10:03:42;3.88;;;1.10;;
37409;SDS011;23275;48.914;12.566;2024-02-26T10:06:09;8.38;;;2.20;;
37409;SDS011;23275;48.914;12.566;2024-02-26T10:08:38;4.03;;;1.25;;
37409;SDS011;23275;48.914;12.566;2024-02-26T10:11:05;2.33;;;1.10;;
37409;SDS011;23275;48.914;12.566;2024-02-26T10:13:33;4.75;;;1.70;;
37409;SDS011;23275;48.914;12.566;2024-02-26T10:16:00;5.22;;;1.63;;
37409;SDS011;23275;48.914;12.566;2024-02-26T10:18:28;6.22;;;2.45;;
37409;SDS011;23275;48.914;12.566;2024-02-26T10:21:16;5.05;;;1.65;;
37409;SDS011;23275;48.914;12.566;2024-02-26T10:23:45;2.70;;;1.00;;
37409;SDS011;23275;48.914;12.566;2024-02-26T10:26:13;4.35;;;1.10;;
37409;SDS011;23275;48.914;12.566;2024-02-26T10:28:39;3.35;;;0.98;;
37409;SDS011;23275;48.914;12.566;2024-02-26T10:31:06;4.90;;;1.15;;
37409;SDS011;23275;48.914;12.566;2024-02-26T10:33:36;1.85;;;0.80;;
37409;SDS011;23275;48.914;12.566;2024-02-26T10:36:03;1.90;;;0.70;;
37409;SDS011;23275;48.914;12.566;2024-02-26T10:38:33;3.78;;;0.77;;
37409;SDS011;23275;48.914;12.566;2024-02-26T10:40:59;2.05;;;0.70;;
37409;SDS011;23275;48.914;12.566;2024-02-26T10:43:26;2.75;;;0.82;;
37409;SDS011;23275;48.914;12.566;2024-02-26T10:45:51;1.88;;;0.85;;
37409;SDS011;23275;48.914;12.566;2024-02-26T10:48:19;1.95;;;0.88;;
37409;SDS011;23275;48.914;12.566;2024-02-26T10:50:45;3.97;;;0.80;;
37409;SDS011;23275;48.914;12.566;2024-02-26T10:53:21;3.83;;;0.73;;
37409;SDS011;23275;48.914;12.566;2024-02-26T10:56:09;3.17;;;1.02;;
37409;SDS011;23275;48.914;12.566;2024-02-26T10:58:35;1.55;;;0.75;;
37409;SDS011;23275;48.914;12.566;2024-02-26T11:01:01;2.45;;;1.00;;
37409;SDS011;23275;48.914;12.566;2024-02-26T11:03:28;2.20;;;0.90;;
37409;SDS011;23275;48.914;12.566;2024-02-26T11:05:57;3.97;;;1.00;;
37409;SDS011;23275;48.914;12.566;2024-02-26T11:08:23;2.03;;;0.90;;
37409;SDS011;23275;48.914;12.566;2024-02-26T11:10:53;3.05;;;0.93;;
37409;SDS011;23275;48.914;12.566;2024-02-26T11:13:19;4.32;;;0.85;;
37409;SDS011;23275;48.914;12.566;2024-02-26T11:15:46;2.05;;;1.00;;
37409;SDS011;23275;48.914;12.566;2024-02-26T11:18:14;2.28;;;0.65;;
37409;SDS011;23275;48.914;12.566;2024-02-26T11:20:40;2.55;;;1.02;;
37409;SDS011;23275;48.914;12.566;2024-02-26T11:23:07;1.52;;;0.77;;
37409;SDS011;23275;48.914;12.566;2024-02-26T11:25:34;2.55;;;0.80;;
37409;SDS011;23275;48.914;12.566;2024-02-26T11:28:02;1.48;;;0.80;;
37409;SDS011;23275;48.914;12.566;2024-02-26T11:30:31;3.03;;;1.20;;
37409;SDS011;23275;48.914;12.566;2024-02-26T11:33:00;3.80;;;1.40;;
37409;SDS011;23275;48.914;12.566;2024-02-26T11:35:26;2.92;;;0.77;;
37409;SDS011;23275;48.914;12.566;2024-02-26T11:37:54;2.47;;;0.93;;
37409;SDS011;23275;48.914;12.566;2024-02-26T11:40:21;3.22;;;1.27;;
37409;SDS011;23275;48.914;12.566;2024-02-26T11:42:51;3.13;;;0.60;;
37409;SDS011;23275;48.914;12.566;2024-02-26T11:48:14;2.92;;;1.20;;
37409;SDS011;23275;48.914;12.566;2024-02-26T11:50:43;2.40;;;0.90;;
37409;SDS011;23275;48.914;12.566;2024-02-26T11:53:19;5.65;;;1.13;;
37409;SDS011;23275;48.914;12.566;2024-02-26T11:59:10;2.63;;;0.70;;
37409;SDS011;23275;48.914;12.566;2024-02-26T12:04:24;2.90;;;0.80;;
37409;SDS011;23275;48.914;12.566;2024-02-26T12:06:53;2.35;;;0.80;;
37409;SDS011;23275;48.914;12.566;2024-02-26T12:12:37;2.28;;;0.90;;
37409;SDS011;23275;48.914;12.566;2024-02-26T12:15:04;2.13;;;1.00;;
37409;SDS011;23275;48.914;12.566;2024-02-26T12:17:32;2.17;;;1.00;;
37409;SDS011;23275;48.914;12.566;2024-02-26T12:20:08;2.28;;;0.90;;
37409;SDS011;23275;48.914;12.566;2024-02-26T12:22:39;2.72;;;0.88;;
37409;SDS011;23275;48.914;12.566;2024-02-26T12:25:05;3.67;;;1.40;;
37409;SDS011;23275;48.914;12.566;2024-02-26T12:27:34;5.93;;;1.98;;
37409;SDS011;23275;48.914;12.566;2024-02-26T12:30:00;3.40;;;1.73;;
37409;SDS011;23275;48.914;12.566;2024-02-26T12:32:26;6.40;;;2.60;;
37409;SDS011;23275;48.914;12.566;2024-02-26T12:34:51;6.32;;;2.88;;
37409;SDS011;23275;48.914;12.566;2024-02-26T12:37:17;5.65;;;3.15;;
37409;SDS011;23275;48.914;12.566;2024-02-26T12:39:43;8.13;;;3.15;;
37409;SDS011;23275;48.914;12.566;2024-02-26T12:42:08;9.48;;;4.10;;
37409;SDS011;23275;48.914;12.566;2024-02-26T12:44:34;7.25;;;3.67;;
37409;SDS011;23275;48.914;12.566;2024-02-26T12:47:00;7.28;;;3.85;;
37409;SDS011;23275;48.914;12.566;2024-02-26T12:49:27;7.95;;;3.78;;
37409;SDS011;23275;48.914;12.566;2024-02-26T12:51:53;9.98;;;4.20;;
37409;SDS011;23275;48.914;12.566;2024-02-26T12:54:20;8.50;;;4.25;;
37409;SDS011;23275;48.914;12.566;2024-02-26T12:56:46;7.50;;;4.00;;
37409;SDS011;23275;48.914;12.566;2024-02-26T12:59:12;7.60;;;4.85;;
37409;SDS011;23275;48.914;12.566;2024-02-26T13:01:37;7.68;;;4.00;;
37409;SDS011;23275;48.914;12.566;2024-02-26T13:04:03;9.00;;;4.07;;
37409;SDS011;23275;48.914;12.566;2024-02-26T13:06:31;7.75;;;3.92;;
37409;SDS011;23275;48.914;12.566;2024-02-26T13:08:59;8.82;;;4.03;;
37409;SDS011;23275;48.914;12.566;2024-02-26T13:11:26;7.20;;;3.90;;
37409;SDS011;23275;48.914;12.566;2024-02-26T13:13:53;7.32;;;3.90;;
37409;SDS011;23275;48.914;12.566;2024-02-26T13:16:19;8.88;;;4.60;;
37409;SDS011;23275;48.914;12.566;2024-02-26T13:18:49;8.48;;;4.53;;
37409;SDS011;23275;48.914;12.566;2024-02-26T13:21:15;8.63;;;4.38;;
37409;SDS011;23275;48.914;12.566;2024-02-26T13:23:42;7.72;;;4.15;;
37409;SDS011;23275;48.914;12.566;2024-02-26T13:26:13;8.55;;;4.40;;
37409;SDS011;23275;48.914;12.566;2024-02-26T13:28:39;7.30;;;4.03;;
37409;SDS011;23275;48.914;12.566;2024-02-26T13:31:05;5.93;;;3.53;;
37409;SDS011;23275;48.914;12.566;2024-02-26T13:33:33;7.32;;;3.88;;
37409;SDS011;23275;48.914;12.566;2024-02-26T13:35:59;7.35;;;3.65;;
37409;SDS011;23275;48.914;12.566;2024-02-26T13:38:25;6.75;;;3.40;;
37409;SDS011;23275;48.914;12.566;2024-02-26T13:40:52;8.23;;;4.35;;
37409;SDS011;23275;48.914;12.566;2024-02-26T13:43:18;9.52;;;4.32;;
37409;SDS011;23275;48.914;12.566;2024-02-26T13:45:44;8.55;;;4.18;;
37409;SDS011;23275;48.914;12.566;2024-02-26T13:48:12;7.30;;;3.58;;
37409;SDS011;23275;48.914;12.566;2024-02-26T13:50:38;6.80;;;3.78;;
37409;SDS011;23275;48.914;12.566;2024-02-26T13:53:05;7.90;;;3.78;;
37409;SDS011;23275;48.914;12.566;2024-02-26T13:55:32;6.07;;;3.75;;
37409;SDS011;23275;48.914;12.566;2024-02-26T13:57:58;7.15;;;3.53;;
37409;SDS011;23275;48.914;12.566;2024-02-26T14:00:26;7.28;;;3.85;;
37409;SDS011;23275;48.914;12.566;2024-02-26T14:02:52;7.47;;;3.95;;
37409;SDS011;23275;48.914;12.566;2024-02-26T14:05:18;6.72;;;3.58;;
37409;SDS011;23275;48.914;12.566;2024-02-26T14:07:44;7.70;;;4.00;;
37409;SDS011;23275;48.914;12.566;2024-02-26T14:10:11;6.53;;;3.83;;
37409;SDS011;23275;48.914;12.566;2024-02-26T14:12:37;5.93;;;3.33;;
37409;SDS011;23275;48.914;12.566;2024-02-26T14:15:07;7.13;;;3.83;;
37409;SDS011;23275;48.914;12.566;2024-02-26T14:17:34;7.13;;;3.65;;
37409;SDS011;23275;48.914;12.566;2024-02-26T14:20:00;9.65;;;3.25;;
37409;SDS011;23275;48.914;12.566;2024-02-26T14:22:25;7.95;;;3.63;;
37409;SDS011;23275;48.914;12.566;2024-02-26T14:24:52;6.60;;;3.50;;
37409;SDS011;23275;48.914;12.566;2024-02-26T14:27:17;7.75;;;3.90;;
37409;SDS011;23275;48.914;12.566;2024-02-26T14:29:45;6.95;;;3.30;;
37409;SDS011;23275;48.914;12.566;2024-02-26T14:32:11;6.25;;;2.92;;
37409;SDS011;23275;48.914;12.566;2024-02-26T14:34:37;5.93;;;3.05;;
37409;SDS011;23275;48.914;12.566;2024-02-26T14:37:03;5.95;;;3.13;;
37409;SDS011;23275;48.914;12.566;2024-02-26T14:39:29;5.88;;;2.80;;
37409;SDS011;23275;48.914;12.566;2024-02-26T14:41:56;5.65;;;2.50;;